createdAt,value
2023-03-08T00:03:44.597Z,15.60
2023-03-08T00:08:39.620Z,16.17
2023-03-08T00:13:33.254Z,17.27
2023-03-08T00:18:26.541Z,16.93
2023-03-08T00:23:19.834Z,17.07
2023-03-08T00:28:14.548Z,18.60
2023-03-08T00:33:07.873Z,15.10
2023-03-08T00:38:01.105Z,16.57
2023-03-08T00:42:54.365Z,15.70
2023-03-08T00:47:49.056Z,16.60
2023-03-08T00:52:42.386Z,19.03
2023-03-08T00:57:35.696Z,16.77
2023-03-08T01:02:29.045Z,15.47
2023-03-08T01:07:26.553Z,17.93
2023-03-08T01:12:22.720Z,15.63
2023-03-08T01:17:16.019Z,17.13
2023-03-08T01:22:09.348Z,16.80
2023-03-08T01:27:04.049Z,21.27
2023-03-08T01:31:57.375Z,22.20
2023-03-08T01:36:50.657Z,22.30
2023-03-08T01:41:44.016Z,25.80
2023-03-08T01:46:38.960Z,79.83
2023-03-08T01:51:41.209Z,60.97
2023-03-08T01:56:36.656Z,36.13
2023-03-08T02:01:30.725Z,21.67
2023-03-08T02:06:25.572Z,20.60
2023-03-08T02:11:21.753Z,17.77
2023-03-08T02:16:17.896Z,15.97
2023-03-08T02:21:11.178Z,19.00
2023-03-08T02:26:07.040Z,17.63
2023-03-08T02:31:00.478Z,18.00
2023-03-08T02:35:54.209Z,18.17
2023-03-08T02:40:51.451Z,16.80
2023-03-08T02:45:46.717Z,18.80
2023-03-08T02:50:40.080Z,18.40
2023-03-08T02:55:36.129Z,17.90
2023-03-08T03:00:29.500Z,20.50
2023-03-08T03:05:24.212Z,17.60
2023-03-08T03:10:17.855Z,15.43
2023-03-08T03:15:13.198Z,18.97
2023-03-08T03:20:11.499Z,19.40
2023-03-08T03:25:07.507Z,18.93
2023-03-08T03:30:00.738Z,18.67
2023-03-08T03:34:54.234Z,19.97
2023-03-08T03:39:47.537Z,17.13
2023-03-08T03:44:42.533Z,18.33
2023-03-08T03:49:35.892Z,22.23
2023-03-08T03:54:29.828Z,18.63
2023-03-08T03:59:25.626Z,17.77
2023-03-08T04:04:21.584Z,19.07
2023-03-08T04:09:18.247Z,17.40
2023-03-08T04:14:12.324Z,19.30
2023-03-08T04:19:09.151Z,22.50
2023-03-08T04:24:03.905Z,17.13
2023-03-08T04:28:57.489Z,20.43
2023-03-08T04:33:52.353Z,19.77
2023-03-08T04:38:47.035Z,17.40
2023-03-08T04:43:45.428Z,18.33
2023-03-08T04:48:39.355Z,16.83
2023-03-08T04:53:33.812Z,20.80
2023-03-08T04:58:27.644Z,17.17
2023-03-08T05:03:22.503Z,18.13
2023-03-08T05:08:16.317Z,17.90
2023-03-08T05:13:09.846Z,18.60
2023-03-08T05:18:03.135Z,16.83
2023-03-08T05:22:59.425Z,20.40
2023-03-08T05:27:54.453Z,19.37
2023-03-08T05:32:47.798Z,20.87
2023-03-08T05:37:41.211Z,18.83
2023-03-08T05:42:36.028Z,16.90
2023-03-08T05:47:30.488Z,18.07
2023-03-08T05:52:23.822Z,20.83
2023-03-08T05:57:17.169Z,20.93
2023-03-08T06:02:11.841Z,23.27
2023-03-08T06:07:05.429Z,21.23
2023-03-08T06:11:58.755Z,20.70
2023-03-08T06:16:52.054Z,22.43
2023-03-08T06:21:46.708Z,18.80
2023-03-08T06:26:40.003Z,18.23
2023-03-08T06:31:33.284Z,22.90
2023-03-08T06:36:26.625Z,20.33
2023-03-08T06:41:22.363Z,20.13
2023-03-08T06:46:18.443Z,17.87
2023-03-08T06:51:12.197Z,21.47
2023-03-08T06:56:07.217Z,19.60
2023-03-08T07:01:04.312Z,20.33
2023-03-08T07:06:01.369Z,18.20
2023-03-08T07:10:54.728Z,19.27
2023-03-08T07:15:48.076Z,16.33
2023-03-08T07:20:42.971Z,16.87
2023-03-08T07:25:38.955Z,17.70
2023-03-08T07:30:32.300Z,16.63
2023-03-08T07:35:25.709Z,16.07
2023-03-08T07:40:21.068Z,14.37
2023-03-08T07:45:15.539Z,17.20
2023-03-08T07:50:10.792Z,30.27
2023-03-08T07:55:04.334Z,26.50
2023-03-08T07:59:59.010Z,13.93
2023-03-08T08:04:52.371Z,10.70
2023-03-08T08:09:45.714Z,11.37
2023-03-08T08:14:39.251Z,12.00
2023-03-08T08:19:33.948Z,9.83
2023-03-08T08:24:27.904Z,11.43
2023-03-08T08:29:21.628Z,9.77
2023-03-08T08:34:15.082Z,11.87
2023-03-08T08:39:09.927Z,10.73
2023-03-08T08:44:04.072Z,10.80
2023-03-08T08:48:58.962Z,13.97
2023-03-08T08:53:52.713Z,9.83
2023-03-08T08:58:48.237Z,10.57
2023-03-08T09:03:41.600Z,7.67
2023-03-08T09:08:34.979Z,11.63
2023-03-08T09:13:28.427Z,11.13
2023-03-08T09:18:23.323Z,7.83
2023-03-08T09:23:16.708Z,9.53
2023-03-08T09:28:10.333Z,8.53
2023-03-08T09:33:04.093Z,8.93
2023-03-08T09:37:59.868Z,6.53
2023-03-08T09:42:56.645Z,7.80
2023-03-08T09:47:56.878Z,8.43
2023-03-08T09:52:57.279Z,9.77
2023-03-08T09:57:56.907Z,6.63
2023-03-08T10:03:07.008Z,8.53
2023-03-08T10:08:10.172Z,8.40
2023-03-08T10:13:29.905Z,5.53
2023-03-08T10:18:36.480Z,6.90
2023-03-08T10:23:32.656Z,7.10
2023-03-08T10:28:28.830Z,6.93
2023-03-08T10:33:25.482Z,7.20
2023-03-08T10:38:19.157Z,8.00
2023-03-08T10:43:26.279Z,6.67
2023-03-08T10:48:22.628Z,7.27
2023-03-08T10:53:22.797Z,6.47
2023-03-08T10:58:32.442Z,6.33
2023-03-08T11:03:28.947Z,7.93
2023-03-08T11:08:27.446Z,5.37
2023-03-08T11:13:31.735Z,6.20
2023-03-08T11:18:51.142Z,7.50
2023-03-08T11:23:52.605Z,5.53
2023-03-08T11:29:07.151Z,9.23
2023-03-08T11:34:39.766Z,11.10
2023-03-08T11:39:40.620Z,6.60
2023-03-08T11:45:00.932Z,7.07
2023-03-08T11:50:12.938Z,7.30
2023-03-08T11:55:36.721Z,6.53
2023-03-08T12:00:37.184Z,6.47
2023-03-08T12:05:36.948Z,7.07
2023-03-08T12:10:44.673Z,5.60
2023-03-08T12:15:48.231Z,6.30
2023-03-08T12:20:45.826Z,5.63
2023-03-08T12:25:44.604Z,4.37
2023-03-08T12:30:55.967Z,7.20
2023-03-08T12:35:59.430Z,6.00
2023-03-08T12:40:55.379Z,4.73
2023-03-08T12:46:03.478Z,4.73
2023-03-08T12:51:09.419Z,6.60
2023-03-08T12:56:28.598Z,7.07
2023-03-08T13:01:37.079Z,5.77
2023-03-08T13:07:23.406Z,7.23
2023-03-08T13:12:35.378Z,4.77
2023-03-08T13:17:39.528Z,4.77
2023-03-08T13:22:47.821Z,4.50
2023-03-08T13:27:55.424Z,4.50
2023-03-08T13:32:51.262Z,5.00
2023-03-08T13:37:55.171Z,8.40
2023-03-08T13:42:56.702Z,5.50
2023-03-08T13:47:51.301Z,4.27
2023-03-08T13:52:46.361Z,4.53
2023-03-08T13:57:42.270Z,3.80
2023-03-08T14:02:35.671Z,3.73
2023-03-08T14:07:32.198Z,3.93
2023-03-08T14:12:32.095Z,3.57
2023-03-08T14:17:29.273Z,3.30
2023-03-08T14:22:38.275Z,3.70
2023-03-08T14:27:42.551Z,7.40
2023-03-08T14:32:36.043Z,5.87
2023-03-08T14:37:32.451Z,4.13
2023-03-08T14:42:32.106Z,3.83
2023-03-08T14:47:29.975Z,4.63
2023-03-08T14:52:23.337Z,4.50
2023-03-08T14:57:21.502Z,3.43
2023-03-08T15:02:18.069Z,4.80
2023-03-08T15:07:21.155Z,3.00
2023-03-08T15:12:14.588Z,3.77
2023-03-08T15:17:07.952Z,3.27
2023-03-08T15:22:01.986Z,4.33
2023-03-08T15:26:57.277Z,3.27
2023-03-08T15:31:50.520Z,3.43
2023-03-08T15:36:43.765Z,3.33
2023-03-08T15:41:37.041Z,3.77
2023-03-08T15:46:31.800Z,4.80
2023-03-08T15:51:32.869Z,4.93
2023-03-08T15:56:26.663Z,5.03
2023-03-08T16:01:20.729Z,4.43
2023-03-08T16:06:17.614Z,4.40
2023-03-08T16:11:13.575Z,4.87
2023-03-08T16:16:08.354Z,5.37
2023-03-08T16:21:02.142Z,4.23
2023-03-08T16:26:15.322Z,4.27
2023-03-08T16:31:10.205Z,4.93
2023-03-08T16:36:03.784Z,5.60
2023-03-08T16:41:12.212Z,7.50
2023-03-08T16:46:06.835Z,5.20
2023-03-08T16:51:01.136Z,5.40
2023-03-08T16:55:55.302Z,4.70
2023-03-08T17:00:50.314Z,5.40
2023-03-08T17:05:45.876Z,8.47
2023-03-08T17:10:40.304Z,10.90
2023-03-08T17:15:40.806Z,6.60
2023-03-08T17:20:36.497Z,7.27
2023-03-08T17:25:29.868Z,8.40
2023-03-08T17:30:23.889Z,9.70
2023-03-08T17:35:17.343Z,14.20
2023-03-08T17:40:15.011Z,11.47
2023-03-08T17:45:09.868Z,11.10
2023-03-08T17:50:03.879Z,9.40
2023-03-08T17:54:57.256Z,11.63
2023-03-08T17:59:54.004Z,13.00
2023-03-08T18:04:49.343Z,11.40
2023-03-08T18:09:42.974Z,12.77
2023-03-08T18:14:39.982Z,11.70
2023-03-08T18:19:35.643Z,12.20
2023-03-08T18:24:29.472Z,14.27
2023-03-08T18:29:22.869Z,11.03
2023-03-08T18:34:16.300Z,14.30
2023-03-08T18:39:14.772Z,13.53
2023-03-08T18:44:08.423Z,12.80
2023-03-08T18:49:05.995Z,13.53
2023-03-08T18:54:00.493Z,12.23
2023-03-08T18:59:02.981Z,13.57
2023-03-08T19:04:06.388Z,13.03
2023-03-08T19:08:59.827Z,11.97
2023-03-08T19:13:55.350Z,13.97
2023-03-08T19:18:51.292Z,15.67
2023-03-08T19:23:45.107Z,13.57
2023-03-08T19:28:38.685Z,12.47
2023-03-08T19:33:33.532Z,14.73
2023-03-08T19:38:26.994Z,14.50
2023-03-08T19:43:20.330Z,18.63
2023-03-08T19:48:17.095Z,66.23
2023-03-08T19:53:13.027Z,19.87
2023-03-08T19:58:09.363Z,9.40
2023-03-08T20:03:02.762Z,7.90
2023-03-08T20:07:56.147Z,8.13
2023-03-08T20:12:52.609Z,6.37
2023-03-08T20:17:48.265Z,6.27
2023-03-08T20:22:42.353Z,5.40
2023-03-08T20:27:37.660Z,4.60
2023-03-08T20:32:32.781Z,4.53
2023-03-08T20:37:26.362Z,3.23
2023-03-08T20:42:22.318Z,3.23
2023-03-08T20:47:16.013Z,3.83
2023-03-08T20:52:13.656Z,2.93
2023-03-08T20:57:06.980Z,2.43
2023-03-08T21:02:00.330Z,2.60
2023-03-08T21:06:55.101Z,2.30
2023-03-08T21:11:51.128Z,2.80
2023-03-08T21:16:44.809Z,2.90
2023-03-08T21:21:40.591Z,2.50
2023-03-08T21:26:35.745Z,2.33
2023-03-08T21:31:31.177Z,2.30
2023-03-08T21:36:25.642Z,3.73
2023-03-08T21:41:21.336Z,3.83
2023-03-08T21:46:14.749Z,3.93
2023-03-08T21:51:10.449Z,4.20
2023-03-08T21:56:04.113Z,3.37
2023-03-08T22:00:57.884Z,2.47
2023-03-08T22:05:51.504Z,2.73
2023-03-08T22:10:46.447Z,3.40
2023-03-08T22:15:39.999Z,2.50
2023-03-08T22:20:33.333Z,2.23
2023-03-08T22:25:26.703Z,3.67
2023-03-08T22:30:21.874Z,2.40
2023-03-08T22:35:16.971Z,2.40
2023-03-08T22:40:13.124Z,2.13
2023-03-08T22:45:08.373Z,2.20
2023-03-08T22:50:03.983Z,3.27
2023-03-08T22:54:58.007Z,2.00
2023-03-08T22:59:51.391Z,2.17
2023-03-08T23:04:44.779Z,2.47
2023-03-08T23:09:39.686Z,1.90
2023-03-08T23:14:33.317Z,4.17
2023-03-08T23:19:26.811Z,2.20
2023-03-08T23:24:21.227Z,2.20
2023-03-08T23:29:16.490Z,2.73
2023-03-08T23:34:10.000Z,2.00
2023-03-08T23:39:04.180Z,1.67
2023-03-08T23:44:00.418Z,1.30
2023-03-08T23:48:58.780Z,1.70
2023-03-08T23:53:54.268Z,1.00
2023-03-08T23:58:51.021Z,1.07
